createdAt,value
2022-12-25T00:00:20.686Z,5.57
2022-12-25T00:00:52.758Z,8.35
2022-12-25T00:01:25.578Z,5.80
2022-12-25T00:01:57.250Z,4.90
2022-12-25T00:02:29.823Z,4.82
2022-12-25T00:03:02.946Z,6.50
2022-12-25T00:03:34.803Z,5.63
2022-12-25T00:04:06.393Z,7.20
2022-12-25T00:04:38.160Z,7.75
2022-12-25T00:05:09.715Z,13.15
2022-12-25T00:05:41.480Z,6.30
2022-12-25T00:06:13.455Z,6.35
2022-12-25T00:06:45.725Z,6.07
2022-12-25T00:07:17.350Z,6.15
2022-12-25T00:07:49.018Z,7.57
2022-12-25T00:08:20.521Z,7.88
2022-12-25T00:08:52.124Z,6.85
2022-12-25T00:09:23.617Z,7.40
2022-12-25T00:09:55.194Z,7.00
2022-12-25T00:10:26.707Z,7.10
2022-12-25T00:11:03.149Z,7.35
2022-12-25T00:11:34.860Z,7.25
2022-12-25T00:12:06.414Z,8.07
2022-12-25T00:12:38.035Z,8.55
2022-12-25T00:13:09.629Z,7.63
2022-12-25T00:13:41.962Z,8.43
2022-12-25T00:14:13.776Z,9.15
2022-12-25T00:14:45.344Z,8.65
2022-12-25T00:15:16.949Z,8.98
2022-12-25T00:15:48.752Z,10.43
2022-12-25T00:16:23.269Z,9.90
2022-12-25T00:16:54.944Z,8.80
2022-12-25T00:17:26.549Z,8.85
2022-12-25T00:17:58.093Z,8.45
2022-12-25T00:18:29.593Z,10.30
2022-12-25T00:19:01.295Z,9.68
2022-12-25T00:19:32.958Z,9.48
2022-12-25T00:20:06.129Z,10.82
2022-12-25T00:20:37.639Z,9.27
2022-12-25T00:21:10.852Z,8.60
2022-12-25T00:21:42.362Z,10.90
2022-12-25T00:22:13.905Z,9.90
2022-12-25T00:22:45.420Z,9.75
2022-12-25T00:23:16.955Z,10.07
2022-12-25T00:23:52.954Z,10.65
2022-12-25T00:24:24.566Z,11.32
2022-12-25T00:24:56.285Z,10.25
2022-12-25T00:25:28.208Z,9.73
2022-12-25T00:26:00.078Z,10.50
2022-12-25T00:26:31.820Z,10.35
2022-12-25T00:27:03.395Z,10.38
2022-12-25T00:27:37.792Z,11.15
2022-12-25T00:28:09.391Z,10.80
2022-12-25T00:28:41.112Z,9.00
2022-12-25T00:29:13.879Z,10.65
2022-12-25T00:29:45.430Z,9.10
2022-12-25T00:30:16.951Z,8.65
2022-12-25T00:30:48.475Z,9.55
2022-12-25T00:31:20.333Z,10.60
2022-12-25T00:31:51.902Z,10.13
2022-12-25T00:32:23.464Z,10.20
2022-12-25T00:32:55.017Z,8.80
2022-12-25T00:33:26.526Z,9.18
2022-12-25T00:33:58.104Z,9.43
2022-12-25T00:34:30.131Z,10.02
2022-12-25T00:35:01.918Z,10.57
2022-12-25T00:35:34.209Z,7.15
2022-12-25T00:36:06.422Z,7.72
2022-12-25T00:36:41.919Z,7.80
2022-12-25T00:37:13.903Z,7.78
2022-12-25T00:37:45.427Z,7.47
2022-12-25T00:38:16.996Z,7.47
2022-12-25T00:38:51.371Z,8.55
2022-12-25T00:39:22.904Z,7.72
2022-12-25T00:39:54.553Z,7.68
2022-12-25T00:40:26.079Z,9.05
2022-12-25T00:41:05.784Z,7.35
2022-12-25T00:41:55.828Z,9.52
2022-12-25T00:42:28.512Z,7.90
2022-12-25T00:43:00.098Z,7.82
2022-12-25T00:43:31.734Z,18.08
2022-12-25T00:44:03.228Z,10.00
2022-12-25T00:44:34.955Z,8.93
2022-12-25T00:45:07.190Z,8.52
2022-12-25T00:45:38.878Z,8.30
2022-12-25T00:46:12.375Z,8.40
2022-12-25T00:46:46.142Z,8.02
2022-12-25T00:47:18.261Z,8.07
2022-12-25T00:47:49.815Z,7.82
2022-12-25T00:48:21.315Z,7.95
2022-12-25T00:48:52.928Z,8.35
2022-12-25T00:49:24.609Z,8.93
2022-12-25T00:49:56.172Z,8.43
2022-12-25T00:50:27.732Z,8.60
2022-12-25T00:51:02.788Z,8.75
2022-12-25T00:51:34.392Z,8.55
2022-12-25T00:52:05.974Z,8.30
2022-12-25T00:52:37.518Z,8.80
2022-12-25T00:53:09.032Z,8.18
2022-12-25T00:53:40.537Z,8.63
2022-12-25T00:54:12.108Z,8.73
2022-12-25T00:54:43.772Z,9.52
2022-12-25T00:55:15.304Z,9.30
2022-12-25T00:55:55.517Z,9.38
2022-12-25T00:56:28.189Z,9.13
2022-12-25T00:57:00.219Z,7.95
2022-12-25T00:57:33.067Z,8.95
2022-12-25T00:58:04.616Z,8.25
2022-12-25T00:58:36.358Z,9.23
2022-12-25T00:59:08.357Z,9.30
2022-12-25T00:59:41.144Z,8.88
2022-12-25T01:00:13.310Z,9.40
2022-12-25T01:00:44.842Z,10.82
2022-12-25T01:01:16.540Z,10.32
2022-12-25T01:01:48.300Z,9.18
2022-12-25T01:02:26.142Z,9.07
2022-12-25T01:02:58.086Z,9.43
2022-12-25T01:03:29.890Z,9.13
2022-12-25T01:04:01.563Z,9.27
2022-12-25T01:04:33.137Z,10.77
2022-12-25T01:05:08.329Z,9.45
2022-12-25T01:05:39.837Z,10.32
2022-12-25T01:06:12.882Z,9.95
2022-12-25T01:06:44.614Z,8.85
2022-12-25T01:07:19.547Z,10.07
2022-12-25T01:07:51.181Z,10.27
2022-12-25T01:08:22.995Z,10.38
2022-12-25T01:09:15.545Z,10.90
2022-12-25T01:10:06.071Z,9.82
2022-12-25T01:10:37.621Z,8.57
2022-12-25T01:11:09.202Z,10.38
2022-12-25T01:11:41.024Z,8.98
2022-12-25T01:12:12.580Z,9.55
2022-12-25T01:12:44.141Z,10.38
2022-12-25T01:13:15.697Z,10.50
2022-12-25T01:13:47.206Z,11.85
2022-12-25T01:14:19.391Z,9.85
2022-12-25T01:14:50.886Z,10.00
2022-12-25T01:15:22.397Z,10.23
2022-12-25T01:15:54.563Z,10.05
2022-12-25T01:16:26.486Z,8.40
2022-12-25T01:16:58.199Z,9.20
2022-12-25T01:17:29.857Z,8.80
2022-12-25T01:18:07.297Z,9.07
2022-12-25T01:18:39.670Z,10.00
2022-12-25T01:19:11.536Z,11.18
2022-12-25T01:19:43.083Z,9.63
2022-12-25T01:20:16.279Z,10.93
2022-12-25T01:20:48.213Z,11.98
2022-12-25T01:21:21.299Z,9.20
2022-12-25T01:21:53.559Z,9.13
2022-12-25T01:22:25.140Z,9.70
2022-12-25T01:22:56.665Z,11.15
2022-12-25T01:23:28.173Z,10.13
2022-12-25T01:23:59.834Z,9.93
2022-12-25T01:24:31.405Z,10.32
2022-12-25T01:25:03.399Z,9.32
2022-12-25T01:25:35.066Z,9.00
2022-12-25T01:26:08.686Z,10.30
2022-12-25T01:26:41.586Z,9.07
2022-12-25T01:27:13.377Z,8.77
2022-12-25T01:27:45.263Z,9.10
2022-12-25T01:28:16.879Z,10.80
2022-12-25T01:28:49.259Z,9.13
2022-12-25T01:29:20.819Z,9.85
2022-12-25T01:29:52.351Z,8.10
2022-12-25T01:30:23.871Z,8.93
2022-12-25T01:30:55.422Z,9.68
2022-12-25T01:31:27.132Z,9.00
2022-12-25T01:31:58.752Z,8.98
2022-12-25T01:32:30.321Z,9.63
2022-12-25T01:33:01.845Z,10.55
2022-12-25T01:33:33.358Z,8.98
2022-12-25T01:34:05.107Z,9.68
2022-12-25T01:34:36.798Z,10.40
2022-12-25T01:35:08.737Z,9.75
2022-12-25T01:35:40.633Z,9.35
2022-12-25T01:36:19.974Z,10.05
2022-12-25T01:36:51.582Z,10.90
2022-12-25T01:37:24.904Z,11.02
2022-12-25T01:37:56.480Z,9.00
2022-12-25T01:38:27.958Z,9.10
2022-12-25T01:39:00.144Z,9.07
2022-12-25T01:39:32.137Z,8.57
2022-12-25T01:40:04.838Z,9.75
2022-12-25T01:40:38.539Z,9.57
2022-12-25T01:41:11.833Z,8.65
2022-12-25T01:41:43.378Z,8.50
2022-12-25T01:42:19.899Z,8.55
2022-12-25T01:42:51.527Z,9.30
2022-12-25T01:43:30.310Z,9.10
2022-12-25T01:44:04.490Z,8.85
2022-12-25T01:44:35.971Z,8.45
2022-12-25T01:45:34.127Z,9.90
2022-12-25T01:46:05.778Z,10.50
2022-12-25T01:46:37.398Z,8.75
2022-12-25T01:47:08.864Z,8.70
2022-12-25T01:47:40.483Z,9.68
2022-12-25T01:48:17.233Z,9.07
2022-12-25T01:48:49.106Z,8.73
2022-12-25T01:49:25.671Z,10.98
2022-12-25T01:49:57.449Z,8.43
2022-12-25T01:50:29.184Z,8.75
2022-12-25T01:51:07.132Z,9.73
2022-12-25T01:51:48.864Z,7.97
2022-12-25T01:52:26.765Z,8.13
2022-12-25T01:52:59.556Z,8.48
2022-12-25T01:53:31.308Z,10.00
2022-12-25T01:54:07.051Z,9.82
2022-12-25T01:54:43.325Z,8.35
2022-12-25T01:55:15.086Z,9.05
2022-12-25T01:55:48.595Z,9.52
2022-12-25T01:56:20.206Z,10.18
2022-12-25T01:56:53.826Z,9.63
2022-12-25T01:57:27.634Z,12.13
2022-12-25T01:57:59.175Z,10.30
2022-12-25T01:58:31.158Z,9.38
2022-12-25T01:59:03.191Z,8.55
2022-12-25T01:59:34.841Z,10.13
2022-12-25T02:00:09.066Z,9.00
2022-12-25T02:00:40.834Z,9.38
2022-12-25T02:01:12.571Z,8.05
2022-12-25T02:01:44.361Z,9.70
2022-12-25T02:02:16.141Z,10.32
2022-12-25T02:02:48.529Z,10.45
2022-12-25T02:03:21.303Z,8.60
2022-12-25T02:03:57.025Z,9.07
2022-12-25T02:04:40.606Z,8.77
2022-12-25T02:05:18.597Z,9.20
2022-12-25T02:05:51.051Z,7.97
2022-12-25T02:06:23.566Z,9.02
2022-12-25T02:06:55.935Z,9.13
2022-12-25T02:07:29.966Z,8.88
2022-12-25T02:08:06.732Z,8.13
2022-12-25T02:08:38.588Z,8.15
2022-12-25T02:09:10.182Z,9.27
2022-12-25T02:09:42.230Z,8.68
2022-12-25T02:10:14.268Z,8.52
2022-12-25T02:10:46.005Z,8.35
2022-12-25T02:11:37.493Z,7.72
2022-12-25T02:12:43.941Z,8.07
2022-12-25T02:13:18.107Z,8.25
2022-12-25T02:13:49.653Z,7.82
2022-12-25T02:14:21.236Z,10.32
2022-12-25T02:15:01.144Z,7.50
2022-12-25T02:15:47.719Z,6.78
2022-12-25T02:16:22.229Z,7.88
2022-12-25T02:17:21.285Z,7.55
2022-12-25T02:18:31.778Z,9.45
2022-12-25T02:19:11.342Z,8.27
2022-12-25T02:20:09.937Z,6.93
2022-12-25T02:21:02.816Z,7.55
2022-12-25T02:22:12.935Z,8.32
2022-12-25T02:23:15.463Z,7.63
2022-12-25T02:23:54.381Z,6.63
2022-12-25T02:24:29.046Z,9.68
2022-12-25T02:25:18.564Z,6.57
2022-12-25T02:26:17.423Z,6.68
2022-12-25T02:27:06.731Z,7.10
2022-12-25T02:28:01.537Z,7.28
2022-12-25T02:29:10.135Z,7.72
2022-12-25T02:30:02.281Z,7.10
2022-12-25T02:30:39.903Z,6.97
2022-12-25T02:31:23.960Z,9.25
2022-12-25T02:31:59.661Z,7.35
2022-12-25T02:32:35.311Z,7.90
2022-12-25T02:33:34.195Z,8.10
2022-12-25T02:34:19.294Z,5.72
2022-12-25T02:35:07.801Z,7.13
2022-12-25T02:35:39.957Z,7.38
2022-12-25T02:36:16.715Z,7.95
2022-12-25T02:37:07.874Z,7.47
2022-12-25T02:37:51.802Z,7.18
2022-12-25T02:38:30.602Z,6.53
2022-12-25T02:39:23.730Z,7.40
2022-12-25T02:40:02.819Z,6.95
2022-12-25T02:40:41.514Z,8.02
2022-12-25T02:41:15.712Z,7.32
2022-12-25T02:41:53.244Z,6.78
2022-12-25T02:43:01.729Z,6.25
2022-12-25T02:43:55.389Z,6.72
2022-12-25T02:44:46.457Z,7.35
2022-12-25T02:45:40.435Z,5.85
2022-12-25T02:46:33.159Z,7.53
2022-12-25T02:47:45.239Z,6.13
2022-12-25T02:48:37.585Z,6.82
2022-12-25T02:49:31.775Z,6.57
2022-12-25T02:50:23.198Z,7.40
2022-12-25T02:51:14.418Z,7.68
2022-12-25T02:52:10.981Z,6.65
2022-12-25T02:53:04.187Z,5.80
2022-12-25T02:53:54.566Z,6.82
2022-12-25T02:54:51.292Z,7.95
2022-12-25T02:55:45.877Z,6.60
2022-12-25T02:56:36.870Z,6.80
2022-12-25T02:57:30.358Z,6.60
2022-12-25T02:58:28.885Z,6.57
2022-12-25T02:59:19.335Z,7.15
2022-12-25T03:00:10.929Z,7.05
2022-12-25T03:01:07.695Z,6.53
2022-12-25T03:01:58.072Z,6.63
2022-12-25T03:02:49.408Z,6.95
2022-12-25T03:03:41.157Z,7.43
2022-12-25T03:04:35.234Z,6.85
2022-12-25T03:05:26.807Z,8.13
2022-12-25T03:06:21.107Z,7.18
2022-12-25T03:07:03.206Z,6.75
2022-12-25T03:07:38.478Z,8.75
2022-12-25T03:08:16.545Z,6.55
2022-12-25T03:08:53.212Z,6.43
2022-12-25T03:09:46.636Z,6.70
2022-12-25T03:10:37.605Z,6.78
2022-12-25T03:11:29.355Z,7.32
2022-12-25T03:12:15.791Z,6.13
2022-12-25T03:13:12.983Z,7.95
2022-12-25T03:13:46.830Z,7.40
2022-12-25T03:14:37.158Z,6.40
2022-12-25T03:15:29.293Z,6.25
2022-12-25T03:16:20.895Z,7.25
2022-12-25T03:16:55.630Z,6.18
2022-12-25T03:17:27.361Z,9.20
2022-12-25T03:18:01.705Z,6.85
2022-12-25T03:18:33.826Z,7.32
2022-12-25T03:19:25.447Z,6.70
2022-12-25T03:20:15.536Z,6.93
2022-12-25T03:21:05.500Z,6.47
2022-12-25T03:21:55.497Z,8.45
2022-12-25T03:22:48.077Z,6.38
2022-12-25T03:23:41.037Z,6.95
2022-12-25T03:24:31.117Z,6.28
2022-12-25T03:25:21.750Z,6.05
2022-12-25T03:26:56.899Z,7.05
2022-12-25T03:27:32.244Z,6.43
2022-12-25T03:28:06.107Z,7.97
2022-12-25T03:28:37.730Z,7.55
2022-12-25T03:29:09.290Z,6.38
2022-12-25T03:29:59.723Z,6.90
2022-12-25T03:31:14.317Z,6.47
2022-12-25T03:31:54.064Z,7.50
2022-12-25T03:33:18.009Z,6.30
2022-12-25T03:34:51.084Z,5.75
2022-12-25T03:35:45.569Z,6.63
2022-12-25T03:36:28.704Z,7.13
2022-12-25T03:37:30.702Z,7.65
2022-12-25T03:38:36.686Z,8.15
2022-12-25T03:39:35.061Z,6.43
2022-12-25T03:40:29.788Z,6.28
2022-12-25T03:41:38.489Z,7.13
2022-12-25T03:42:30.357Z,6.03
2022-12-25T03:43:46.239Z,10.35
2022-12-25T03:44:43.618Z,6.93
2022-12-25T03:45:44.384Z,6.53
2022-12-25T03:46:36.157Z,6.50
2022-12-25T03:47:37.525Z,7.28
2022-12-25T03:48:28.451Z,8.50
2022-12-25T03:49:27.173Z,7.38
2022-12-25T03:50:22.056Z,7.35
2022-12-25T03:51:31.822Z,7.72
2022-12-25T03:52:23.495Z,6.78
2022-12-25T03:53:15.156Z,5.97
2022-12-25T03:54:08.237Z,6.68
2022-12-25T03:55:00.460Z,6.68
2022-12-25T03:55:51.070Z,7.15
2022-12-25T03:56:41.714Z,6.22
2022-12-25T03:57:32.181Z,6.88
2022-12-25T03:58:22.225Z,7.30
2022-12-25T03:59:22.945Z,6.70
2022-12-25T04:00:13.854Z,6.25
2022-12-25T04:01:03.953Z,6.80
2022-12-25T04:01:54.006Z,6.85
2022-12-25T04:02:44.574Z,6.80
2022-12-25T04:03:35.162Z,7.05
2022-12-25T04:04:25.207Z,5.78
2022-12-25T04:05:15.289Z,6.35
2022-12-25T04:06:05.233Z,7.13
2022-12-25T04:06:55.880Z,5.57
2022-12-25T04:07:46.345Z,8.45
2022-12-25T04:08:36.398Z,6.75
2022-12-25T04:09:26.557Z,6.55
2022-12-25T04:10:16.593Z,6.28
2022-12-25T04:11:06.754Z,6.03
2022-12-25T04:12:02.261Z,7.18
2022-12-25T04:13:09.764Z,6.85
2022-12-25T04:13:59.605Z,6.03
2022-12-25T04:14:49.838Z,6.70
2022-12-25T04:15:39.967Z,7.15
2022-12-25T04:16:30.074Z,6.80
2022-12-25T04:17:21.063Z,6.90
2022-12-25T04:18:11.747Z,7.18
2022-12-25T04:19:01.863Z,6.40
2022-12-25T04:19:51.949Z,8.35
2022-12-25T04:21:01.834Z,6.20
2022-12-25T04:21:51.887Z,6.82
2022-12-25T04:22:42.074Z,5.15
2022-12-25T04:23:32.149Z,6.30
2022-12-25T04:24:22.750Z,5.82
2022-12-25T04:25:12.812Z,6.00
2022-12-25T04:26:02.931Z,8.50
2022-12-25T04:26:53.502Z,5.50
2022-12-25T04:27:50.850Z,6.03
2022-12-25T04:28:40.722Z,6.57
2022-12-25T04:29:30.539Z,6.53
2022-12-25T04:30:21.049Z,6.18
2022-12-25T04:31:11.277Z,6.30
2022-12-25T04:32:01.250Z,6.43
2022-12-25T04:32:51.457Z,6.50
2022-12-25T04:33:43.670Z,6.18
2022-12-25T04:34:34.250Z,6.53
2022-12-25T04:35:24.679Z,6.45
2022-12-25T04:36:14.228Z,6.15
2022-12-25T04:36:45.893Z,7.40
2022-12-25T04:37:17.539Z,5.97
2022-12-25T04:37:49.070Z,5.35
2022-12-25T04:38:21.205Z,6.60
2022-12-25T04:38:52.713Z,6.60
2022-12-25T04:39:24.249Z,7.30
2022-12-25T04:39:55.785Z,5.85
2022-12-25T04:40:27.351Z,8.90
2022-12-25T04:40:59.967Z,6.32
2022-12-25T04:41:31.491Z,6.32
2022-12-25T04:42:03.293Z,7.00
2022-12-25T04:42:35.241Z,5.72
2022-12-25T04:43:06.811Z,7.53
2022-12-25T04:43:38.486Z,7.03
2022-12-25T04:44:10.093Z,5.68
2022-12-25T04:44:41.680Z,8.20
2022-12-25T04:45:13.165Z,6.72
2022-12-25T04:45:52.546Z,6.97
2022-12-25T04:46:24.101Z,7.13
2022-12-25T04:46:55.945Z,8.25
2022-12-25T04:47:27.641Z,7.50
2022-12-25T04:48:03.023Z,7.47
2022-12-25T04:48:35.871Z,7.57
2022-12-25T04:49:07.420Z,7.30
2022-12-25T04:49:39.296Z,8.38
2022-12-25T04:50:11.526Z,7.32
2022-12-25T04:50:43.025Z,6.95
2022-12-25T04:51:17.240Z,6.32
2022-12-25T04:51:48.808Z,7.47
2022-12-25T04:52:20.334Z,6.55
2022-12-25T04:52:51.914Z,6.32
2022-12-25T04:53:24.443Z,7.53
2022-12-25T04:53:56.162Z,6.93
2022-12-25T04:54:27.678Z,7.47
2022-12-25T04:54:59.173Z,8.25
2022-12-25T04:55:49.309Z,7.18
2022-12-25T04:56:21.316Z,7.65
2022-12-25T04:56:52.895Z,8.63
2022-12-25T04:57:24.407Z,8.10
2022-12-25T04:57:55.956Z,7.25
2022-12-25T04:58:27.498Z,8.18
2022-12-25T04:58:59.057Z,7.53
2022-12-25T04:59:30.610Z,9.20
2022-12-25T05:00:02.170Z,7.47
2022-12-25T05:00:33.903Z,7.68
2022-12-25T05:01:06.832Z,8.27
2022-12-25T05:01:38.531Z,8.40
2022-12-25T05:02:10.402Z,8.43
2022-12-25T05:02:42.590Z,10.18
2022-12-25T05:03:14.355Z,8.07
2022-12-25T05:03:46.066Z,9.32
2022-12-25T05:04:17.636Z,11.20
2022-12-25T05:04:49.115Z,9.13
2022-12-25T05:05:20.641Z,8.75
2022-12-25T05:05:52.678Z,9.57
2022-12-25T05:06:24.338Z,10.15
2022-12-25T05:06:55.923Z,9.50
2022-12-25T05:07:27.667Z,8.45
2022-12-25T05:07:59.321Z,7.90
2022-12-25T05:08:32.028Z,8.75
2022-12-25T05:09:03.548Z,8.75
2022-12-25T05:09:35.747Z,9.10
2022-12-25T05:10:07.780Z,9.38
2022-12-25T05:10:40.524Z,9.27
2022-12-25T05:11:14.252Z,9.10
2022-12-25T05:11:45.742Z,9.90
2022-12-25T05:12:17.215Z,8.85
2022-12-25T05:12:48.737Z,8.48
2022-12-25T05:13:20.264Z,9.18
2022-12-25T05:13:51.744Z,9.00
2022-12-25T05:14:23.385Z,7.70
2022-12-25T05:14:55.266Z,8.40
2022-12-25T05:15:26.777Z,9.85
2022-12-25T05:15:58.376Z,8.85
2022-12-25T05:16:30.113Z,8.25
2022-12-25T05:17:01.808Z,9.90
2022-12-25T05:17:33.369Z,8.55
2022-12-25T05:18:04.974Z,7.72
2022-12-25T05:18:36.462Z,9.25
2022-12-25T05:19:07.982Z,9.20
2022-12-25T05:19:39.505Z,8.57
2022-12-25T05:20:11.273Z,9.50
2022-12-25T05:20:42.827Z,9.52
2022-12-25T05:21:14.448Z,8.63
2022-12-25T05:21:45.966Z,9.15
2022-12-25T05:22:17.516Z,9.35
2022-12-25T05:22:48.986Z,9.18
2022-12-25T05:23:21.274Z,8.02
2022-12-25T05:23:53.364Z,8.60
2022-12-25T05:24:28.673Z,8.95
2022-12-25T05:25:00.207Z,8.70
2022-12-25T05:25:31.957Z,8.40
2022-12-25T05:26:05.542Z,8.85
2022-12-25T05:26:37.049Z,7.63
2022-12-25T05:27:08.584Z,7.93
2022-12-25T05:27:40.133Z,8.63
2022-12-25T05:28:11.627Z,7.93
2022-12-25T05:28:43.438Z,8.77
2022-12-25T05:29:14.983Z,8.32
2022-12-25T05:29:46.484Z,9.80
2022-12-25T05:30:18.137Z,7.60
2022-12-25T05:30:49.724Z,7.72
2022-12-25T05:31:21.418Z,10.13
2022-12-25T05:31:53.107Z,9.02
2022-12-25T05:32:24.615Z,8.98
2022-12-25T05:32:56.137Z,9.25
2022-12-25T05:33:27.824Z,8.65
2022-12-25T05:33:59.414Z,7.68
2022-12-25T05:34:30.985Z,8.93
2022-12-25T05:35:02.556Z,8.45
2022-12-25T05:35:37.366Z,9.23
2022-12-25T05:36:10.261Z,7.90
2022-12-25T05:36:41.786Z,8.57
2022-12-25T05:37:13.641Z,8.80
2022-12-25T05:37:45.261Z,9.00
2022-12-25T05:38:16.798Z,9.18
2022-12-25T05:38:48.328Z,8.35
2022-12-25T05:39:19.851Z,8.15
2022-12-25T05:39:51.362Z,8.23
2022-12-25T05:40:22.928Z,8.80
2022-12-25T05:40:54.474Z,8.70
2022-12-25T05:41:30.639Z,8.10
2022-12-25T05:42:05.885Z,8.68
2022-12-25T05:42:37.439Z,8.10
2022-12-25T05:43:09.280Z,7.75
2022-12-25T05:43:44.765Z,8.43
2022-12-25T05:44:19.309Z,7.70
2022-12-25T05:44:50.882Z,8.32
2022-12-25T05:45:22.407Z,7.90
2022-12-25T05:45:54.222Z,7.95
2022-12-25T05:46:25.788Z,10.05
2022-12-25T05:46:57.425Z,8.25
2022-12-25T05:47:29.005Z,7.47
2022-12-25T05:48:00.599Z,7.95
2022-12-25T05:48:33.314Z,9.80
2022-12-25T05:49:05.734Z,8.55
2022-12-25T05:49:37.303Z,8.43
2022-12-25T05:50:09.253Z,7.68
2022-12-25T05:50:40.897Z,7.85
2022-12-25T05:51:14.585Z,8.40
2022-12-25T05:51:46.080Z,9.13
2022-12-25T05:52:17.606Z,9.27
2022-12-25T05:52:49.119Z,8.07
2022-12-25T05:53:20.669Z,7.75
2022-12-25T05:53:52.232Z,7.55
2022-12-25T05:54:24.064Z,8.32
2022-12-25T05:54:55.581Z,8.35
2022-12-25T05:55:27.102Z,7.70
2022-12-25T05:56:03.163Z,7.75
2022-12-25T05:56:34.685Z,8.07
2022-12-25T05:57:06.460Z,8.02
2022-12-25T05:57:37.981Z,7.68
2022-12-25T05:58:10.525Z,7.68
2022-12-25T05:58:42.170Z,7.20
2022-12-25T05:59:13.659Z,7.97
2022-12-25T05:59:45.225Z,7.65
2022-12-25T06:00:17.065Z,8.30
2022-12-25T06:00:48.589Z,7.45
2022-12-25T06:01:23.117Z,8.43
2022-12-25T06:01:54.744Z,8.90
2022-12-25T06:02:26.633Z,7.25
2022-12-25T06:02:58.633Z,7.82
2022-12-25T06:03:30.298Z,8.40
2022-12-25T06:04:04.664Z,7.72
2022-12-25T06:04:40.115Z,8.93
2022-12-25T06:05:11.818Z,8.23
2022-12-25T06:05:43.276Z,7.55
2022-12-25T06:06:15.211Z,8.73
2022-12-25T06:06:46.853Z,8.23
2022-12-25T06:07:18.352Z,7.45
2022-12-25T06:07:50.146Z,8.30
2022-12-25T06:08:21.695Z,6.70
2022-12-25T06:08:55.090Z,8.73
2022-12-25T06:09:26.781Z,8.60
2022-12-25T06:09:58.283Z,8.02
2022-12-25T06:10:29.806Z,7.25
2022-12-25T06:11:05.989Z,6.75
2022-12-25T06:11:37.684Z,8.50
2022-12-25T06:12:09.457Z,7.65
2022-12-25T06:12:41.012Z,8.15
2022-12-25T06:13:12.598Z,7.40
2022-12-25T06:13:44.204Z,8.05
2022-12-25T06:14:16.297Z,7.57
2022-12-25T06:14:47.821Z,8.02
2022-12-25T06:15:19.335Z,8.10
2022-12-25T06:15:51.163Z,7.78
2022-12-25T06:16:22.769Z,8.27
2022-12-25T06:16:54.380Z,7.75
2022-12-25T06:17:26.810Z,8.10
2022-12-25T06:18:00.581Z,7.65
2022-12-25T06:18:35.559Z,8.82
2022-12-25T06:19:07.229Z,7.13
2022-12-25T06:19:38.904Z,6.97
2022-12-25T06:20:10.873Z,7.97
2022-12-25T06:20:42.406Z,7.75
2022-12-25T06:21:15.128Z,7.68
2022-12-25T06:21:46.696Z,8.80
2022-12-25T06:22:19.237Z,7.75
2022-12-25T06:22:50.818Z,8.43
2022-12-25T06:23:22.553Z,10.20
2022-12-25T06:23:54.408Z,8.15
2022-12-25T06:24:25.972Z,7.13
2022-12-25T06:24:57.713Z,8.55
2022-12-25T06:25:29.272Z,7.43
2022-12-25T06:26:06.474Z,7.40
2022-12-25T06:26:38.016Z,7.97
2022-12-25T06:27:12.296Z,7.32
2022-12-25T06:27:43.863Z,7.47
2022-12-25T06:28:15.369Z,7.70
2022-12-25T06:28:47.515Z,7.80
2022-12-25T06:29:19.102Z,6.50
2022-12-25T06:29:50.665Z,8.35
2022-12-25T06:30:22.215Z,7.25
2022-12-25T06:30:53.711Z,7.53
2022-12-25T06:31:25.658Z,7.43
2022-12-25T06:31:57.443Z,9.23
2022-12-25T06:32:29.114Z,9.55
2022-12-25T06:33:00.688Z,8.13
2022-12-25T06:33:32.223Z,7.25
2022-12-25T06:34:03.838Z,7.65
2022-12-25T06:34:35.418Z,7.93
2022-12-25T06:35:07.336Z,9.00
2022-12-25T06:35:41.273Z,8.50
2022-12-25T06:36:18.537Z,7.97
2022-12-25T06:36:50.746Z,8.60
2022-12-25T06:37:22.256Z,7.78
2022-12-25T06:37:53.857Z,8.13
2022-12-25T06:38:25.655Z,8.80
2022-12-25T06:39:00.346Z,9.02
2022-12-25T06:39:32.079Z,9.00
2022-12-25T06:40:03.919Z,9.63
2022-12-25T06:40:35.540Z,8.18
2022-12-25T06:41:22.180Z,10.70
2022-12-25T06:41:53.683Z,9.23
2022-12-25T06:42:25.188Z,8.70
2022-12-25T06:42:59.839Z,8.55
2022-12-25T06:43:31.383Z,8.48
2022-12-25T06:44:03.001Z,8.73
2022-12-25T06:44:34.520Z,8.75
2022-12-25T06:45:06.569Z,9.18
2022-12-25T06:45:38.299Z,8.13
2022-12-25T06:46:12.290Z,8.68
2022-12-25T06:46:43.912Z,9.98
2022-12-25T06:47:15.440Z,8.95
2022-12-25T06:47:46.942Z,8.48
2022-12-25T06:48:18.466Z,9.55
2022-12-25T06:48:50.209Z,9.55
2022-12-25T06:49:21.789Z,9.05
2022-12-25T06:49:53.335Z,8.68
2022-12-25T06:50:24.891Z,9.73
2022-12-25T06:50:59.849Z,10.00
2022-12-25T06:51:32.674Z,9.07
2022-12-25T06:52:04.261Z,8.38
2022-12-25T06:52:36.213Z,9.60
2022-12-25T06:53:07.694Z,8.90
2022-12-25T06:53:40.193Z,8.75
2022-12-25T06:54:12.389Z,9.45
2022-12-25T06:54:43.874Z,9.38
2022-12-25T06:55:16.102Z,9.57
2022-12-25T06:55:50.689Z,8.63
2022-12-25T06:56:24.491Z,8.65
2022-12-25T06:56:55.995Z,8.40
2022-12-25T06:57:27.501Z,9.98
2022-12-25T06:57:59.165Z,9.43
2022-12-25T06:58:30.718Z,9.98
2022-12-25T06:59:05.167Z,9.63
2022-12-25T06:59:36.689Z,8.45
2022-12-25T07:00:09.034Z,8.60
2022-12-25T07:00:41.374Z,9.32
2022-12-25T07:01:24.682Z,10.52
2022-12-25T07:01:57.681Z,8.93
2022-12-25T07:02:29.555Z,8.02
2022-12-25T07:03:01.241Z,9.63
2022-12-25T07:03:35.343Z,8.38
2022-12-25T07:04:12.737Z,8.43
2022-12-25T07:04:44.741Z,9.00
2022-12-25T07:05:16.434Z,8.00
2022-12-25T07:05:48.092Z,8.05
2022-12-25T07:06:19.937Z,7.45
2022-12-25T07:06:51.524Z,8.90
2022-12-25T07:07:23.690Z,9.90
2022-12-25T07:07:55.233Z,8.93
2022-12-25T07:08:26.762Z,9.10
2022-12-25T07:08:58.357Z,8.02
2022-12-25T07:09:29.956Z,8.52
2022-12-25T07:10:01.490Z,9.65
2022-12-25T07:10:33.036Z,7.78
2022-12-25T07:11:04.745Z,7.88
2022-12-25T07:11:36.595Z,8.68
2022-12-25T07:12:23.567Z,8.77
2022-12-25T07:12:55.338Z,8.80
2022-12-25T07:13:26.830Z,8.70
2022-12-25T07:13:58.366Z,8.98
2022-12-25T07:14:29.834Z,9.02
2022-12-25T07:15:01.342Z,8.57
2022-12-25T07:15:33.318Z,8.13
2022-12-25T07:16:05.724Z,8.38
2022-12-25T07:16:37.577Z,9.05
2022-12-25T07:17:09.209Z,10.77
2022-12-25T07:17:40.709Z,8.88
2022-12-25T07:18:12.288Z,7.82
2022-12-25T07:18:43.817Z,7.43
2022-12-25T07:19:17.102Z,8.07
2022-12-25T07:19:48.832Z,8.93
2022-12-25T07:20:20.481Z,9.05
2022-12-25T07:20:52.076Z,7.35
2022-12-25T07:21:23.587Z,7.38
2022-12-25T07:21:55.139Z,8.68
2022-12-25T07:22:29.031Z,8.70
2022-12-25T07:23:00.742Z,9.27
2022-12-25T07:23:32.284Z,8.68
2022-12-25T07:24:05.150Z,8.70
2022-12-25T07:24:36.786Z,8.40
2022-12-25T07:25:08.361Z,8.68
2022-12-25T07:25:39.894Z,8.27
2022-12-25T07:26:12.222Z,9.05
2022-12-25T07:26:43.814Z,8.23
2022-12-25T07:27:15.302Z,8.45
2022-12-25T07:27:47.101Z,7.63
2022-12-25T07:28:21.930Z,7.63
2022-12-25T07:28:55.359Z,8.55
2022-12-25T07:29:26.948Z,8.77
2022-12-25T07:29:58.459Z,7.53
2022-12-25T07:30:30.261Z,8.75
2022-12-25T07:31:07.383Z,8.50
2022-12-25T07:31:41.066Z,7.60
2022-12-25T07:32:12.784Z,8.10
2022-12-25T07:32:49.880Z,8.30
2022-12-25T07:33:21.761Z,7.05
2022-12-25T07:33:55.545Z,7.47
2022-12-25T07:34:27.132Z,7.72
2022-12-25T07:34:58.957Z,8.23
2022-12-25T07:35:30.629Z,7.03
2022-12-25T07:36:02.587Z,7.22
2022-12-25T07:36:34.122Z,8.77
2022-12-25T07:37:05.635Z,7.28
2022-12-25T07:37:38.584Z,7.53
2022-12-25T07:38:10.477Z,9.57
2022-12-25T07:38:42.630Z,8.40
2022-12-25T07:39:14.269Z,7.05
2022-12-25T07:39:45.841Z,7.15
2022-12-25T07:40:17.550Z,7.88
2022-12-25T07:40:49.183Z,7.70
2022-12-25T07:41:20.966Z,7.00
2022-12-25T07:41:54.796Z,7.70
2022-12-25T07:42:26.269Z,6.53
2022-12-25T07:42:59.205Z,6.95
2022-12-25T07:43:30.750Z,6.43
2022-12-25T07:44:02.299Z,7.80
2022-12-25T07:44:33.819Z,7.70
2022-12-25T07:45:06.158Z,7.63
2022-12-25T07:45:38.229Z,6.30
2022-12-25T07:46:10.581Z,7.57
2022-12-25T07:46:42.776Z,7.30
2022-12-25T07:47:14.912Z,7.50
2022-12-25T07:47:46.607Z,7.53
2022-12-25T07:48:18.131Z,6.75
2022-12-25T07:48:49.851Z,7.22
2022-12-25T07:49:23.564Z,7.15
2022-12-25T07:49:55.061Z,6.35
2022-12-25T07:50:28.702Z,7.45
2022-12-25T07:51:02.986Z,7.97
2022-12-25T07:51:35.122Z,7.35
2022-12-25T07:52:06.613Z,7.25
2022-12-25T07:52:43.424Z,6.47
2022-12-25T07:53:15.383Z,6.90
2022-12-25T07:53:47.156Z,5.75
2022-12-25T07:54:18.676Z,7.95
2022-12-25T07:54:50.201Z,8.23
2022-12-25T07:55:21.927Z,6.68
2022-12-25T07:55:58.707Z,6.45
2022-12-25T07:56:30.227Z,6.97
2022-12-25T07:57:04.487Z,7.43
2022-12-25T07:57:36.458Z,7.55
2022-12-25T07:58:07.979Z,7.75
2022-12-25T07:58:40.350Z,6.55
2022-12-25T07:59:12.052Z,7.50
2022-12-25T07:59:43.554Z,7.43
2022-12-25T08:00:15.873Z,6.82
2022-12-25T08:00:47.493Z,7.13
2022-12-25T08:01:25.397Z,7.63
2022-12-25T08:01:57.369Z,7.38
2022-12-25T08:02:29.412Z,6.50
2022-12-25T08:03:01.414Z,6.95
2022-12-25T08:03:34.322Z,6.22
2022-12-25T08:04:06.292Z,6.50
2022-12-25T08:04:37.885Z,6.88